createdAt,value
2023-05-10T00:00:15.077Z,3
2023-05-10T00:01:15.079Z,3
2023-05-10T00:02:15.627Z,0
2023-05-10T00:03:15.115Z,0
2023-05-10T00:04:15.286Z,0
2023-05-10T00:05:15.286Z,0
2023-05-10T00:08:14.834Z,0
2023-05-10T00:09:15.061Z,0
2023-05-10T00:10:14.773Z,0
2023-05-10T00:11:14.781Z,0
2023-05-10T00:12:13.735Z,0
2023-05-10T00:13:14.954Z,0
2023-05-10T00:14:14.960Z,0
2023-05-10T00:15:15.270Z,0
2023-05-10T00:16:15.672Z,0
2023-05-10T00:21:15.072Z,0
2023-05-10T00:22:15.435Z,0
2023-05-10T00:23:15.501Z,0
2023-05-10T00:24:14.820Z,0
2023-05-10T00:25:14.981Z,0
2023-05-10T00:26:15.203Z,0
2023-05-10T00:27:15.318Z,0
2023-05-10T00:28:14.850Z,0
2023-05-10T00:29:15.047Z,0
2023-05-10T00:30:15.809Z,0
2023-05-10T00:31:15.307Z,0
2023-05-10T00:32:15.822Z,0
2023-05-10T00:33:14.763Z,0
2023-05-10T00:34:14.953Z,0
2023-05-10T00:35:15.009Z,0
2023-05-10T00:36:15.262Z,0
2023-05-10T00:37:15.337Z,1
2023-05-10T00:38:14.167Z,1
2023-05-10T00:39:15.506Z,1
2023-05-10T00:41:14.004Z,1
2023-05-10T00:42:15.256Z,0
2023-05-10T00:43:15.671Z,0
2023-05-10T00:44:14.620Z,0
2023-05-10T00:45:15.270Z,0
2023-05-10T00:46:15.585Z,0
2023-05-10T00:47:15.561Z,3
2023-05-10T00:48:14.702Z,3
2023-05-10T00:49:14.497Z,3
2023-05-10T00:50:15.483Z,3
2023-05-10T00:51:15.455Z,3
2023-05-10T00:52:14.624Z,3
2023-05-10T00:53:14.658Z,3
2023-05-10T00:54:15.288Z,3
2023-05-10T00:55:15.328Z,3
2023-05-10T00:56:14.561Z,3
2023-05-10T00:57:15.300Z,1
2023-05-10T01:00:14.720Z,1
2023-05-10T01:01:15.207Z,1
2023-05-10T01:02:15.387Z,3
2023-05-10T01:03:16.263Z,3
2023-05-10T01:04:14.424Z,3
2023-05-10T01:05:15.179Z,3
2023-05-10T01:06:15.299Z,3
2023-05-10T01:07:14.780Z,3
2023-05-10T01:08:15.223Z,3
2023-05-10T01:09:15.263Z,3
2023-05-10T01:10:14.756Z,3
2023-05-10T01:11:14.897Z,3
2023-05-10T01:12:15.621Z,5
2023-05-10T01:13:15.663Z,5
2023-05-10T01:14:14.760Z,5
2023-05-10T01:15:15.036Z,5
2023-05-10T01:16:15.517Z,5
2023-05-10T01:17:15.258Z,5
2023-05-10T01:18:15.562Z,5
2023-05-10T01:19:15.711Z,5
2023-05-10T01:20:15.511Z,5
2023-05-10T01:21:15.328Z,5
2023-05-10T01:22:15.458Z,7
2023-05-10T01:23:14.739Z,7
2023-05-10T01:24:15.066Z,7
2023-05-10T01:25:15.393Z,7
2023-05-10T01:26:15.440Z,7
2023-05-10T01:27:14.614Z,8
2023-05-10T01:28:15.003Z,8
2023-05-10T01:29:15.326Z,8
2023-05-10T01:35:15.510Z,5
2023-05-10T01:36:14.556Z,5
2023-05-10T01:37:14.152Z,7
2023-05-10T01:38:15.039Z,7
2023-05-10T01:39:14.985Z,7
2023-05-10T01:40:15.421Z,7
2023-05-10T01:45:14.783Z,7
2023-05-10T01:46:15.131Z,7
2023-05-10T01:47:15.345Z,4
2023-05-10T01:48:15.876Z,4
2023-05-10T01:49:14.599Z,4
2023-05-10T01:50:15.143Z,4
2023-05-10T01:51:15.488Z,4
2023-05-10T01:52:14.782Z,3
2023-05-10T01:53:15.277Z,3
2023-05-10T01:54:15.241Z,3
2023-05-10T01:55:15.656Z,3
2023-05-10T01:56:14.981Z,3
2023-05-10T01:57:15.297Z,3
2023-05-10T01:58:15.453Z,3
2023-05-10T01:59:15.540Z,3
2023-05-10T02:00:15.113Z,3
2023-05-10T02:01:15.981Z,3
2023-05-10T02:02:15.334Z,3
2023-05-10T02:03:15.543Z,3
2023-05-10T02:04:15.326Z,3
2023-05-10T02:06:14.563Z,3
2023-05-10T02:07:14.876Z,1
2023-05-10T02:08:15.150Z,1
2023-05-10T02:09:14.353Z,1
2023-05-10T02:10:15.296Z,1
2023-05-10T02:11:14.876Z,1
2023-05-10T02:12:15.219Z,3
2023-05-10T02:13:15.699Z,3
2023-05-10T02:14:14.668Z,3
2023-05-10T02:15:15.204Z,3
2023-05-10T02:16:15.429Z,3
2023-05-10T02:17:15.271Z,1
2023-05-10T02:18:15.876Z,1
2023-05-10T02:19:14.728Z,1
2023-05-10T02:20:15.053Z,1
2023-05-10T02:21:15.220Z,1
2023-05-10T02:22:15.319Z,1
2023-05-10T02:23:15.220Z,1
2023-05-10T02:24:15.364Z,1
2023-05-10T02:25:15.700Z,1
2023-05-10T02:29:14.750Z,0
2023-05-10T02:30:13.950Z,0
2023-05-10T02:31:15.217Z,0
2023-05-10T02:32:16.448Z,0
2023-05-10T02:33:14.639Z,0
2023-05-10T02:34:14.632Z,0
2023-05-10T02:35:15.265Z,0
2023-05-10T02:36:15.202Z,0
2023-05-10T02:37:15.459Z,1
2023-05-10T02:38:15.756Z,1
2023-05-10T02:39:15.287Z,1
2023-05-10T02:42:15.297Z,3
2023-05-10T02:43:14.879Z,3
2023-05-10T02:44:15.206Z,3
2023-05-10T02:45:15.245Z,3
2023-05-10T02:46:14.976Z,3
2023-05-10T02:47:15.017Z,3
2023-05-10T02:48:15.704Z,3
2023-05-10T02:49:14.881Z,3
2023-05-10T02:53:14.509Z,3
2023-05-10T02:54:15.198Z,3
2023-05-10T02:55:14.875Z,3
2023-05-10T02:56:14.945Z,3
2023-05-10T02:57:15.351Z,4
2023-05-10T02:58:15.328Z,4
2023-05-10T02:59:14.218Z,4
2023-05-10T03:00:15.850Z,4
2023-05-10T03:01:14.870Z,4
2023-05-10T03:02:14.980Z,3
2023-05-10T03:03:15.425Z,3
2023-05-10T03:04:15.613Z,3
2023-05-10T03:05:14.653Z,3
2023-05-10T03:06:15.611Z,3
2023-05-10T03:07:14.664Z,3
2023-05-10T03:08:15.461Z,3
2023-05-10T03:09:14.779Z,3
2023-05-10T03:10:15.439Z,3
2023-05-10T03:11:15.520Z,3
2023-05-10T03:12:14.804Z,3
2023-05-10T03:13:15.738Z,3
2023-05-10T03:14:15.270Z,3
2023-05-10T03:15:15.627Z,3
2023-05-10T03:17:14.814Z,5
2023-05-10T03:18:15.302Z,5
2023-05-10T03:20:14.726Z,5
2023-05-10T03:21:14.925Z,5
2023-05-10T03:22:14.837Z,4
2023-05-10T03:26:15.388Z,4
2023-05-10T03:27:15.627Z,6
2023-05-10T03:28:14.991Z,6
2023-05-10T03:29:15.146Z,6
2023-05-10T03:30:15.687Z,6
2023-05-10T03:31:15.910Z,6
2023-05-10T03:32:15.503Z,8
2023-05-10T03:36:14.959Z,8
2023-05-10T03:37:15.147Z,7
2023-05-10T03:38:15.560Z,7
2023-05-10T03:39:14.811Z,7
2023-05-10T03:40:15.229Z,7
2023-05-10T03:41:14.790Z,7
2023-05-10T03:42:15.276Z,7
2023-05-10T03:43:15.294Z,7
2023-05-10T03:44:14.634Z,7
2023-05-10T03:45:14.670Z,7
2023-05-10T03:46:15.465Z,7
2023-05-10T03:47:15.777Z,5
2023-05-10T03:48:15.517Z,5
2023-05-10T03:49:14.842Z,5
2023-05-10T03:50:15.749Z,5
2023-05-10T03:53:14.790Z,4
2023-05-10T03:54:15.054Z,4
2023-05-10T03:55:14.102Z,4
2023-05-10T03:56:15.426Z,4
2023-05-10T03:57:15.382Z,5
2023-05-10T03:58:14.558Z,5
2023-05-10T03:59:15.132Z,5
2023-05-10T04:00:15.598Z,5
2023-05-10T04:01:15.376Z,5
2023-05-10T04:02:15.880Z,5
2023-05-10T04:03:14.972Z,5
2023-05-10T04:04:15.518Z,5
2023-05-10T04:05:14.941Z,5
2023-05-10T04:06:15.362Z,5
2023-05-10T04:07:15.238Z,1
2023-05-10T04:08:15.426Z,1
2023-05-10T04:11:15.172Z,1
2023-05-10T04:12:17.697Z,8
2023-05-10T04:13:15.409Z,8
2023-05-10T04:14:15.532Z,8
2023-05-10T04:16:13.895Z,8
2023-05-10T04:17:15.973Z,5
2023-05-10T04:18:17.581Z,5
2023-05-10T04:19:13.572Z,5
2023-05-10T04:20:15.030Z,5
2023-05-10T04:21:15.468Z,5
2023-05-10T04:22:15.441Z,4
2023-05-10T04:23:15.473Z,4
2023-05-10T04:24:14.834Z,4
2023-05-10T04:25:15.308Z,4
2023-05-10T04:28:14.552Z,6
2023-05-10T04:29:15.110Z,6
2023-05-10T04:30:15.522Z,6
2023-05-10T04:31:15.731Z,6
2023-05-10T04:32:14.532Z,5
2023-05-10T04:33:15.271Z,5
2023-05-10T04:34:15.346Z,5
2023-05-10T04:35:15.386Z,5
2023-05-10T04:36:14.781Z,5
2023-05-10T04:37:15.125Z,3
2023-05-10T04:38:15.445Z,3
2023-05-10T04:39:15.482Z,3
2023-05-10T04:40:15.071Z,3
2023-05-10T04:41:15.273Z,3
2023-05-10T04:42:15.326Z,5
2023-05-10T04:46:15.275Z,5
2023-05-10T04:47:17.732Z,5
2023-05-10T04:48:15.039Z,5
2023-05-10T04:49:15.354Z,5
2023-05-10T04:50:14.776Z,5
2023-05-10T04:51:14.079Z,5
2023-05-10T04:52:15.140Z,7
2023-05-10T04:53:17.991Z,7
2023-05-10T04:54:15.545Z,7
2023-05-10T04:55:15.411Z,7
2023-05-10T04:56:15.058Z,7
2023-05-10T04:57:15.287Z,4
2023-05-10T04:58:14.891Z,4
2023-05-10T04:59:15.315Z,4
2023-05-10T05:00:15.622Z,4
2023-05-10T05:04:14.583Z,3
2023-05-10T05:05:15.121Z,3
2023-05-10T05:06:15.343Z,3
2023-05-10T05:07:15.471Z,4
2023-05-10T05:08:14.809Z,4
2023-05-10T05:09:15.169Z,4
2023-05-10T05:10:15.418Z,4
2023-05-10T05:11:15.442Z,4
2023-05-10T05:12:14.349Z,6
2023-05-10T05:13:15.185Z,6
2023-05-10T05:14:15.004Z,6
2023-05-10T05:16:15.194Z,6
2023-05-10T05:17:14.458Z,1
2023-05-10T05:18:15.961Z,1
2023-05-10T05:19:15.274Z,1
2023-05-10T05:20:14.927Z,1
2023-05-10T05:21:15.263Z,1
2023-05-10T05:22:15.946Z,7
2023-05-10T05:23:14.772Z,7
2023-05-10T05:24:15.315Z,7
2023-05-10T05:25:15.514Z,7
2023-05-10T05:29:15.051Z,4
2023-05-10T05:30:14.763Z,4
2023-05-10T05:31:15.761Z,4
2023-05-10T05:32:15.480Z,5
2023-05-10T05:33:15.517Z,5
2023-05-10T05:34:14.810Z,5
2023-05-10T05:35:15.124Z,5
2023-05-10T05:36:15.153Z,5
2023-05-10T05:37:15.074Z,9
2023-05-10T05:38:15.527Z,9
2023-05-10T05:39:14.615Z,9
2023-05-10T05:40:15.201Z,9
2023-05-10T05:41:15.331Z,9
2023-05-10T05:42:15.500Z,9
2023-05-10T05:43:14.872Z,9
2023-05-10T05:44:15.220Z,9
2023-05-10T05:45:15.902Z,9
2023-05-10T05:46:16.160Z,9
2023-05-10T05:47:13.996Z,18
2023-05-10T05:48:15.396Z,18
2023-05-10T05:49:15.314Z,18
2023-05-10T05:50:15.335Z,18
2023-05-10T05:51:17.848Z,18
2023-05-10T05:52:14.848Z,15
2023-05-10T05:53:15.205Z,15
2023-05-10T05:54:15.288Z,15
2023-05-10T05:55:15.618Z,15
2023-05-10T05:56:15.431Z,15
2023-05-10T05:57:14.425Z,12
2023-05-10T05:58:14.647Z,12
2023-05-10T05:59:14.955Z,12
2023-05-10T06:00:15.522Z,12
2023-05-10T06:01:15.426Z,12
2023-05-10T06:02:14.954Z,11
2023-05-10T06:03:15.564Z,11
2023-05-10T06:04:16.176Z,11
2023-05-10T06:08:14.502Z,14
2023-05-10T06:09:14.940Z,14
2023-05-10T06:10:15.756Z,14
2023-05-10T06:11:15.029Z,14
2023-05-10T06:12:15.271Z,19
2023-05-10T06:13:15.921Z,19
2023-05-10T06:14:14.691Z,19
2023-05-10T06:15:15.274Z,19
2023-05-10T06:16:15.569Z,19
2023-05-10T06:17:15.817Z,14
2023-05-10T06:18:15.133Z,14
2023-05-10T06:19:15.183Z,14
2023-05-10T06:20:14.723Z,14
2023-05-10T06:21:15.572Z,14
2023-05-10T06:22:14.852Z,14
2023-05-10T06:23:15.258Z,14
2023-05-10T06:24:15.380Z,14
2023-05-10T06:30:23.813Z,12
2023-05-10T06:31:15.211Z,12
2023-05-10T06:32:15.452Z,9
2023-05-10T06:33:15.552Z,9
2023-05-10T06:34:14.986Z,9
2023-05-10T06:35:15.472Z,9
2023-05-10T06:36:15.348Z,9
2023-05-10T06:37:14.751Z,14
2023-05-10T06:38:14.862Z,14
2023-05-10T06:39:14.801Z,14
2023-05-10T06:40:15.195Z,14
2023-05-10T06:41:15.315Z,14
2023-05-10T06:43:13.629Z,11
2023-05-10T06:44:15.203Z,11
2023-05-10T06:45:15.799Z,11
2023-05-10T06:46:15.700Z,11
2023-05-10T06:47:14.723Z,15
2023-05-10T06:48:15.650Z,15
2023-05-10T06:49:15.255Z,15
2023-05-10T06:50:14.895Z,15
2023-05-10T06:51:15.055Z,15
2023-05-10T06:52:13.686Z,9
2023-05-10T06:53:15.452Z,9
2023-05-10T06:54:14.682Z,9
2023-05-10T06:55:14.904Z,9
2023-05-10T06:56:15.299Z,9
2023-05-10T06:57:38.490Z,11
2023-05-10T07:00:15.252Z,11
2023-05-10T07:01:15.842Z,11
2023-05-10T07:02:15.068Z,17
2023-05-10T07:03:15.202Z,17
2023-05-10T07:04:15.613Z,17
2023-05-10T07:05:14.749Z,17
2023-05-10T07:06:37.312Z,17
2023-05-10T07:10:15.176Z,15
2023-05-10T07:11:15.232Z,15
2023-05-10T07:12:20.433Z,13
2023-05-10T07:13:15.702Z,13
2023-05-10T07:19:14.717Z,12
2023-05-10T07:20:15.046Z,12
2023-05-10T07:21:15.999Z,12
2023-05-10T07:22:14.625Z,11
2023-05-10T07:23:14.916Z,11
2023-05-10T07:24:15.312Z,11
2023-05-10T07:25:15.724Z,11
2023-05-10T07:26:14.782Z,11
2023-05-10T07:27:15.416Z,17
2023-05-10T07:28:14.666Z,17
2023-05-10T07:29:15.216Z,17
2023-05-10T07:30:15.236Z,17
2023-05-10T07:31:15.578Z,17
2023-05-10T07:32:14.850Z,17
2023-05-10T07:33:15.033Z,17
2023-05-10T07:34:15.437Z,17
2023-05-10T07:35:14.679Z,17
2023-05-10T07:36:13.738Z,17
2023-05-10T07:37:14.882Z,13
2023-05-10T07:38:15.221Z,13
2023-05-10T07:39:28.684Z,13
2023-05-10T07:42:15.332Z,14
2023-05-10T07:43:15.501Z,14
2023-05-10T07:44:14.505Z,14
2023-05-10T07:45:15.516Z,14
2023-05-10T07:46:15.063Z,14
2023-05-10T07:47:14.942Z,15
2023-05-10T07:48:15.140Z,15
2023-05-10T07:49:15.302Z,15
2023-05-10T07:50:15.424Z,15
2023-05-10T07:54:14.919Z,21
2023-05-10T07:55:15.550Z,21
2023-05-10T07:56:15.167Z,21
2023-05-10T07:57:15.164Z,13
2023-05-10T07:58:15.486Z,13
2023-05-10T07:59:17.375Z,13
2023-05-10T08:01:14.795Z,13
2023-05-10T08:02:15.191Z,12
2023-05-10T08:03:15.826Z,12
2023-05-10T08:04:16.283Z,12
2023-05-10T08:05:15.015Z,12
2023-05-10T08:06:14.727Z,12
2023-05-10T08:07:14.929Z,11
2023-05-10T08:08:15.107Z,11
2023-05-10T08:09:14.610Z,11
2023-05-10T08:10:15.297Z,11
2023-05-10T08:11:15.517Z,11
2023-05-10T08:12:14.657Z,17
2023-05-10T08:13:14.894Z,17
2023-05-10T08:14:15.160Z,17
2023-05-10T08:15:15.841Z,17
2023-05-10T08:16:15.406Z,17
2023-05-10T08:19:15.252Z,11
2023-05-10T08:20:14.886Z,11
2023-05-10T08:21:15.322Z,11
2023-05-10T08:22:15.103Z,17
2023-05-10T08:23:15.376Z,17
2023-05-10T08:24:14.659Z,17
2023-05-10T08:25:14.896Z,17
2023-05-10T08:28:16.430Z,12
2023-05-10T08:29:14.873Z,12
2023-05-10T08:30:15.309Z,12
2023-05-10T08:31:15.695Z,12
2023-05-10T08:32:15.500Z,13
2023-05-10T08:33:14.971Z,13
2023-05-10T08:34:15.335Z,13
2023-05-10T08:35:15.717Z,13
2023-05-10T08:36:14.963Z,13
2023-05-10T08:37:15.542Z,17
2023-05-10T08:42:14.705Z,17
2023-05-10T08:43:14.906Z,17
2023-05-10T08:44:15.076Z,17
2023-05-10T08:45:15.594Z,17
2023-05-10T08:46:15.956Z,17
2023-05-10T08:47:15.300Z,11
2023-05-10T08:50:15.077Z,11
2023-05-10T08:51:15.358Z,11
2023-05-10T08:52:14.779Z,13
2023-05-10T08:53:14.933Z,13
2023-05-10T08:54:15.038Z,13
2023-05-10T08:55:14.703Z,13
2023-05-10T08:56:14.812Z,13
2023-05-10T08:57:14.947Z,17
2023-05-10T08:58:15.637Z,17
2023-05-10T08:59:14.973Z,17
2023-05-10T09:00:15.415Z,17
2023-05-10T09:01:15.812Z,17
2023-05-10T09:02:16.692Z,13
2023-05-10T09:03:15.124Z,13
2023-05-10T09:04:15.891Z,13
2023-05-10T09:05:16.100Z,13
2023-05-10T09:06:14.647Z,13
2023-05-10T09:07:15.164Z,13
2023-05-10T09:08:15.261Z,13
2023-05-10T09:09:14.551Z,13
2023-05-10T09:10:15.031Z,13
2023-05-10T09:11:15.409Z,13
2023-05-10T09:12:14.864Z,17
2023-05-10T09:15:15.434Z,17
2023-05-10T09:16:31.606Z,17
2023-05-10T09:20:14.670Z,8
2023-05-10T09:21:14.534Z,8
2023-05-10T09:22:14.832Z,9
2023-05-10T09:23:14.757Z,9
2023-05-10T09:24:15.237Z,9
2023-05-10T09:25:15.721Z,9
2023-05-10T09:26:14.582Z,9
2023-05-10T09:27:15.229Z,17
2023-05-10T09:28:15.494Z,17
2023-05-10T09:29:17.805Z,17
2023-05-10T09:30:14.661Z,17
2023-05-10T09:31:15.479Z,17
2023-05-10T09:32:16.072Z,14
2023-05-10T09:33:14.673Z,14
2023-05-10T09:34:14.982Z,14
2023-05-10T09:35:15.570Z,14
2023-05-10T09:36:15.623Z,14
2023-05-10T09:37:14.774Z,12
2023-05-10T09:38:15.204Z,12
2023-05-10T09:39:15.385Z,12
2023-05-10T09:40:14.599Z,12
2023-05-10T09:41:14.769Z,12
2023-05-10T09:42:15.244Z,7
2023-05-10T09:43:15.261Z,7
2023-05-10T09:44:14.715Z,7
2023-05-10T09:45:15.055Z,7
2023-05-10T09:46:15.445Z,7
2023-05-10T09:47:15.506Z,7
2023-05-10T09:48:15.312Z,7
2023-05-10T09:49:14.931Z,7
2023-05-10T09:50:14.668Z,7
2023-05-10T09:51:15.223Z,7
2023-05-10T09:52:15.766Z,8
2023-05-10T09:55:15.058Z,8
2023-05-10T09:56:15.616Z,8
2023-05-10T09:57:14.784Z,6
2023-05-10T09:58:15.549Z,6
2023-05-10T09:59:15.440Z,6
2023-05-10T10:00:14.630Z,6
2023-05-10T10:01:15.113Z,6
2023-05-10T10:02:15.645Z,4
2023-05-10T10:03:15.782Z,4
2023-05-10T10:04:14.802Z,4
2023-05-10T10:05:15.643Z,4
2023-05-10T10:06:34.473Z,4
2023-05-10T10:09:16.553Z,4
2023-05-10T10:10:14.805Z,4
2023-05-10T10:11:14.968Z,4
2023-05-10T10:12:15.293Z,18
2023-05-10T10:13:15.649Z,18
2023-05-10T10:14:14.697Z,18
2023-05-10T10:15:17.428Z,18
2023-05-10T10:18:14.923Z,18
2023-05-10T10:19:15.638Z,18
2023-05-10T10:20:17.174Z,18
2023-05-10T10:21:14.918Z,18
2023-05-10T10:22:15.300Z,13
2023-05-10T10:23:17.261Z,13
2023-05-10T10:24:15.613Z,13
2023-05-10T10:26:15.086Z,13
2023-05-10T10:27:15.216Z,14
2023-05-10T10:28:15.406Z,14
2023-05-10T10:29:15.208Z,14
2023-05-10T10:30:15.361Z,14
2023-05-10T10:31:15.792Z,14
2023-05-10T10:32:14.970Z,13
2023-05-10T10:37:14.668Z,13
2023-05-10T10:38:14.908Z,13
2023-05-10T10:39:15.275Z,13
2023-05-10T10:40:15.271Z,13
2023-05-10T10:41:14.713Z,13
2023-05-10T10:42:15.019Z,11
2023-05-10T10:43:14.746Z,11
2023-05-10T10:44:15.029Z,11
2023-05-10T10:45:15.627Z,11
2023-05-10T10:46:14.805Z,11
2023-05-10T10:47:15.527Z,5
2023-05-10T10:48:15.656Z,5
2023-05-10T10:49:14.694Z,5
2023-05-10T10:50:15.220Z,5
2023-05-10T10:52:15.393Z,7
2023-05-10T10:53:15.407Z,7
2023-05-10T10:55:14.900Z,7
2023-05-10T10:56:14.908Z,7
2023-05-10T10:57:14.773Z,12
2023-05-10T10:58:15.435Z,12
2023-05-10T10:59:15.600Z,12
2023-05-10T11:00:14.776Z,12
2023-05-10T11:01:15.516Z,12
2023-05-10T11:04:15.178Z,8
2023-05-10T11:05:15.333Z,8
2023-05-10T11:06:15.388Z,8
2023-05-10T11:07:15.583Z,11
2023-05-10T11:08:14.702Z,11
2023-05-10T11:09:14.731Z,11
2023-05-10T11:10:14.559Z,11
2023-05-10T11:11:14.940Z,11
2023-05-10T11:12:15.015Z,9
2023-05-10T11:13:14.265Z,9
2023-05-10T11:14:15.245Z,9
2023-05-10T11:15:15.522Z,9
2023-05-10T11:16:15.521Z,9
2023-05-10T11:17:15.967Z,11
2023-05-10T11:18:14.975Z,11
2023-05-10T11:19:15.710Z,11
2023-05-10T11:20:15.674Z,11
2023-05-10T11:21:15.491Z,11
2023-05-10T11:22:14.749Z,7
2023-05-10T11:23:14.944Z,7
2023-05-10T11:24:15.759Z,7
2023-05-10T11:25:15.547Z,7
2023-05-10T11:28:14.603Z,8
2023-05-10T11:29:14.845Z,8
2023-05-10T11:30:16.554Z,8
2023-05-10T11:31:15.416Z,8
2023-05-10T11:32:15.162Z,12
2023-05-10T11:33:14.860Z,12
2023-05-10T11:34:13.772Z,12
2023-05-10T11:35:15.096Z,12
2023-05-10T11:36:14.896Z,12
2023-05-10T11:41:15.289Z,14
2023-05-10T11:42:15.499Z,9
2023-05-10T11:43:14.720Z,9
2023-05-10T11:44:14.728Z,9
2023-05-10T11:45:15.202Z,9
2023-05-10T11:46:15.753Z,9
2023-05-10T11:47:15.632Z,9
2023-05-10T11:49:15.268Z,9
2023-05-10T11:50:15.753Z,9
2023-05-10T11:54:14.541Z,9
2023-05-10T11:55:14.749Z,9
2023-05-10T11:56:15.028Z,9
2023-05-10T11:57:14.994Z,8
2023-05-10T11:58:15.394Z,8
2023-05-10T11:59:15.756Z,8
2023-05-10T12:00:15.097Z,8
2023-05-10T12:01:14.967Z,8
2023-05-10T12:02:15.495Z,6
2023-05-10T12:03:15.989Z,6
2023-05-10T12:04:15.764Z,6
2023-05-10T12:06:15.353Z,6
2023-05-10T12:07:15.558Z,6
2023-05-10T12:08:14.512Z,6
2023-05-10T12:09:14.777Z,6
2023-05-10T12:10:15.723Z,6
2023-05-10T12:11:15.168Z,6
2023-05-10T12:12:15.590Z,0
2023-05-10T12:13:14.707Z,0
2023-05-10T12:14:14.900Z,0
2023-05-10T12:15:14.995Z,0
2023-05-10T12:16:15.611Z,0
2023-05-10T12:20:15.262Z,7
2023-05-10T12:21:13.762Z,7
2023-05-10T12:22:14.920Z,5
2023-05-10T12:23:14.990Z,5
2023-05-10T12:24:15.371Z,5
2023-05-10T12:25:14.831Z,5
2023-05-10T12:26:15.235Z,5
2023-05-10T12:27:15.534Z,6
2023-05-10T12:28:14.643Z,6
2023-05-10T12:29:14.979Z,6
2023-05-10T12:30:15.537Z,6
2023-05-10T12:31:15.518Z,6
2023-05-10T12:32:15.036Z,5
2023-05-10T12:33:15.572Z,5
2023-05-10T12:34:15.091Z,5
2023-05-10T12:35:15.469Z,5
2023-05-10T12:40:15.192Z,5
2023-05-10T12:41:14.832Z,5
2023-05-10T12:42:15.447Z,4
2023-05-10T12:43:14.681Z,4
2023-05-10T12:44:14.414Z,4
2023-05-10T12:45:15.258Z,4
2023-05-10T12:46:16.008Z,4
2023-05-10T12:47:14.893Z,1
2023-05-10T12:48:15.548Z,1
2023-05-10T12:50:15.013Z,1
2023-05-10T12:51:15.154Z,1
2023-05-10T12:52:15.502Z,0
2023-05-10T12:53:15.326Z,0
2023-05-10T12:58:34.763Z,4
2023-05-10T12:59:15.191Z,4
2023-05-10T13:00:15.671Z,4
2023-05-10T13:04:15.105Z,5
2023-05-10T13:05:14.586Z,5
2023-05-10T13:06:15.016Z,5
2023-05-10T13:07:15.486Z,5
2023-05-10T13:08:14.543Z,5
2023-05-10T13:09:14.897Z,5
2023-05-10T13:10:15.167Z,5
2023-05-10T13:11:15.262Z,5
2023-05-10T13:13:14.691Z,3
2023-05-10T13:14:14.744Z,3
2023-05-10T13:15:15.311Z,3
2023-05-10T13:16:14.656Z,3
2023-05-10T13:17:15.859Z,5
2023-05-10T13:18:15.930Z,5
2023-05-10T13:19:16.296Z,5
2023-05-10T13:20:14.949Z,5
2023-05-10T13:21:15.039Z,5
2023-05-10T13:22:18.697Z,6
2023-05-10T13:23:15.190Z,6
2023-05-10T13:24:14.844Z,6
2023-05-10T13:25:14.961Z,6
2023-05-10T13:29:14.801Z,9
2023-05-10T13:30:15.847Z,9
2023-05-10T13:31:14.931Z,9
2023-05-10T13:32:15.050Z,3
2023-05-10T13:33:15.475Z,3
2023-05-10T13:34:14.369Z,3
2023-05-10T13:35:14.919Z,3
2023-05-10T13:36:14.984Z,3
2023-05-10T13:37:15.310Z,5
2023-05-10T13:38:15.718Z,5
2023-05-10T13:39:15.384Z,5
2023-05-10T13:40:15.081Z,5
2023-05-10T13:41:15.289Z,5
2023-05-10T13:42:15.495Z,8
2023-05-10T13:46:15.731Z,8
2023-05-10T13:47:14.664Z,8
2023-05-10T13:48:15.592Z,8
2023-05-10T13:49:15.305Z,8
2023-05-10T13:50:15.740Z,8
2023-05-10T13:51:14.731Z,8
2023-05-10T13:52:14.214Z,1
2023-05-10T13:53:15.590Z,1
2023-05-10T13:54:17.701Z,1
2023-05-10T13:57:15.085Z,3
2023-05-10T13:58:14.606Z,3
2023-05-10T13:59:14.828Z,3
2023-05-10T14:00:15.317Z,3
2023-05-10T14:01:15.032Z,3
2023-05-10T14:02:15.859Z,9
2023-05-10T14:03:16.104Z,9
2023-05-10T14:04:14.858Z,9
2023-05-10T14:05:15.098Z,9
2023-05-10T14:06:15.021Z,9
2023-05-10T14:07:15.368Z,11
2023-05-10T14:11:14.962Z,11
2023-05-10T14:12:14.422Z,8
2023-05-10T14:13:14.688Z,8
2023-05-10T14:14:15.068Z,8
2023-05-10T14:15:14.608Z,8
2023-05-10T14:16:15.989Z,8
2023-05-10T14:17:18.491Z,4
2023-05-10T14:18:14.936Z,4
2023-05-10T14:19:15.822Z,4
2023-05-10T14:21:14.716Z,4
2023-05-10T14:22:14.924Z,7
2023-05-10T14:23:18.334Z,7
2023-05-10T14:24:15.389Z,7
2023-05-10T14:27:15.309Z,4
2023-05-10T14:28:15.144Z,4
2023-05-10T14:30:15.593Z,4
2023-05-10T14:32:15.577Z,1
2023-05-10T14:35:21.582Z,1
2023-05-10T14:40:15.293Z,0
2023-05-10T14:41:16.332Z,0
2023-05-10T14:42:14.524Z,0
2023-05-10T14:43:15.006Z,0
2023-05-10T14:44:14.919Z,0
2023-05-10T14:45:15.693Z,0
2023-05-10T14:46:15.870Z,0
2023-05-10T14:47:16.993Z,1
2023-05-10T14:48:15.247Z,1
2023-05-10T14:49:14.954Z,1
2023-05-10T14:54:15.323Z,3
2023-05-10T14:55:14.745Z,3
2023-05-10T14:56:14.927Z,3
2023-05-10T14:57:14.962Z,4
2023-05-10T14:58:15.264Z,4
2023-05-10T14:59:17.122Z,4
2023-05-10T15:00:16.462Z,4
2023-05-10T15:01:17.478Z,4
2023-05-10T15:02:16.417Z,4
2023-05-10T15:03:17.979Z,4
2023-05-10T15:06:15.069Z,4
2023-05-10T15:07:15.304Z,4
2023-05-10T15:08:15.514Z,4
2023-05-10T15:13:14.995Z,1
2023-05-10T15:14:15.206Z,1
2023-05-10T15:15:15.515Z,1
2023-05-10T15:16:14.978Z,1
2023-05-10T15:17:15.061Z,1
2023-05-10T15:18:15.689Z,1
2023-05-10T15:19:15.358Z,1
2023-05-10T15:20:14.422Z,1
2023-05-10T15:21:15.393Z,1
2023-05-10T15:22:14.554Z,3
2023-05-10T15:25:14.657Z,3
2023-05-10T15:26:15.081Z,3
2023-05-10T15:27:15.315Z,4
2023-05-10T15:28:15.700Z,4
2023-05-10T15:29:14.764Z,4
2023-05-10T15:30:15.361Z,4
2023-05-10T15:31:15.779Z,4
2023-05-10T15:32:14.808Z,1
2023-05-10T15:33:15.416Z,1
2023-05-10T15:34:15.079Z,1
2023-05-10T15:35:14.734Z,1
2023-05-10T15:36:14.819Z,1
2023-05-10T15:37:15.203Z,4
2023-05-10T15:38:15.280Z,4
2023-05-10T15:39:15.608Z,4
2023-05-10T15:40:15.098Z,4
2023-05-10T15:41:15.297Z,4
2023-05-10T15:42:15.569Z,3
2023-05-10T15:43:14.888Z,3
2023-05-10T15:44:14.953Z,3
2023-05-10T15:45:15.471Z,3
2023-05-10T15:46:16.234Z,3
2023-05-10T15:51:14.879Z,0
2023-05-10T15:52:15.019Z,0
2023-05-10T15:53:15.633Z,0
2023-05-10T15:54:16.600Z,0
2023-05-10T15:55:16.190Z,0
2023-05-10T15:56:15.122Z,0
2023-05-10T15:57:15.266Z,1
2023-05-10T15:58:14.619Z,1
2023-05-10T15:59:15.090Z,1
2023-05-10T16:00:15.184Z,1
2023-05-10T16:01:15.237Z,1
2023-05-10T16:02:15.460Z,0
2023-05-10T16:03:15.958Z,0
2023-05-10T16:04:14.468Z,0
2023-05-10T16:05:15.244Z,0
2023-05-10T16:06:15.351Z,0
2023-05-10T16:07:14.280Z,0
2023-05-10T16:08:15.350Z,0
2023-05-10T16:09:15.308Z,0
2023-05-10T16:10:15.896Z,0
2023-05-10T16:11:14.891Z,0
2023-05-10T16:12:15.256Z,1
2023-05-10T16:13:15.677Z,1
2023-05-10T16:14:17.454Z,1
2023-05-10T16:15:15.216Z,1
2023-05-10T16:16:15.771Z,1
2023-05-10T16:17:16.883Z,0
2023-05-10T16:18:14.999Z,0
2023-05-10T16:19:15.200Z,0
2023-05-10T16:20:15.319Z,0
2023-05-10T16:21:15.373Z,0
2023-05-10T16:22:14.681Z,0
2023-05-10T16:23:14.901Z,0
2023-05-10T16:24:15.390Z,0
2023-05-10T16:25:18.264Z,0
2023-05-10T16:30:14.815Z,3
2023-05-10T16:31:15.127Z,3
2023-05-10T16:34:14.692Z,1
2023-05-10T16:35:14.874Z,1
2023-05-10T16:36:15.098Z,1
2023-05-10T16:37:14.803Z,1
2023-05-10T16:38:14.865Z,1
2023-05-10T16:39:15.040Z,1
2023-05-10T16:40:15.373Z,1
2023-05-10T16:41:15.547Z,1
2023-05-10T16:42:15.353Z,1
2023-05-10T16:45:15.536Z,1
2023-05-10T16:46:15.955Z,1
2023-05-10T16:47:14.841Z,3
2023-05-10T16:48:15.020Z,3
2023-05-10T16:49:14.967Z,3
2023-05-10T16:50:15.590Z,3
2023-05-10T16:53:15.252Z,4
2023-05-10T16:56:15.206Z,4
2023-05-10T16:57:15.441Z,4
2023-05-10T16:58:14.998Z,4
2023-05-10T16:59:15.147Z,4
2023-05-10T17:00:15.516Z,4
2023-05-10T17:01:14.816Z,4
2023-05-10T17:02:15.570Z,3
2023-05-10T17:03:16.079Z,3
2023-05-10T17:04:16.021Z,3
2023-05-10T17:05:14.727Z,3
2023-05-10T17:06:15.249Z,3
2023-05-10T17:07:15.498Z,5
2023-05-10T17:08:14.686Z,5
2023-05-10T17:09:14.989Z,5
2023-05-10T17:10:15.394Z,5
2023-05-10T17:14:14.777Z,6
2023-05-10T17:15:13.967Z,6
2023-05-10T17:16:15.959Z,6
2023-05-10T17:18:14.150Z,7
2023-05-10T17:19:15.337Z,7
2023-05-10T17:20:15.187Z,7
2023-05-10T17:21:14.642Z,7
2023-05-10T17:22:14.957Z,9
2023-05-10T17:23:15.196Z,9
2023-05-10T17:24:15.538Z,9
2023-05-10T17:25:14.910Z,9
2023-05-10T17:26:14.810Z,9
2023-05-10T17:27:15.209Z,8
2023-05-10T17:28:15.387Z,8
2023-05-10T17:29:14.754Z,8
2023-05-10T17:30:15.019Z,8
2023-05-10T17:31:15.104Z,8
2023-05-10T17:32:15.731Z,7
2023-05-10T17:33:14.963Z,7
2023-05-10T17:35:15.256Z,7
2023-05-10T17:36:14.726Z,7
2023-05-10T17:37:14.919Z,12
2023-05-10T17:38:15.190Z,12
2023-05-10T17:39:15.296Z,12
2023-05-10T17:40:15.477Z,12
2023-05-10T17:41:14.752Z,12
2023-05-10T17:42:14.983Z,5
2023-05-10T17:43:15.241Z,5
2023-05-10T17:44:14.637Z,5
2023-05-10T17:45:15.156Z,5
2023-05-10T17:46:15.601Z,5
2023-05-10T17:47:14.831Z,8